x

Louisiana Offshore Oil Port, La (lopl1) Wave Buoy

9:58pm - Wed 24th May 2017 All times are CDT. -5 hours from GMT.

  • Sig Wave height 3.3ft
  • Wind
    11mph, 17mph gusts
  • Air Temp 75°f
  • Sea Pressure 1008.1mb
  • Louisiana Offshore Oil Port, La
  • Louisiana Offshore Oil Port, La

More Historic Weather Station data

Upgrade to MSW Pro to gain access to the past 30 days of data for over 8000 Wavebouys and Weather Stations around the globe.

Join Pro

Comparision Forecast

View Surf forecast
   
Wed 05/24 9:58pm 3.5ft 11 17 mph 1008.1mb 75f
8:58pm 3.5ft 13 20 mph 1007.1mb 75f
7:58pm 3.5ft 15 24 mph 1006.1mb 74f
6:58pm 4ft 18 26 mph 1006.1mb 74f
5:58pm 3.5ft 15 21 mph 1006.1mb 74f
4:58pm 3.5ft 18 26 mph 1006.1mb 74f
3:58pm 3ft 16 24 mph 1006.1mb 74f
2:58pm 3.5ft 13 21 mph 1006.1mb 75f
1:53pm 3ft 11 21 mph 1007.1mb 74f
12:53pm 3.5ft 13 18 mph 1006.1mb 74f
11:53am 3.5ft 22 31 mph 1006.1mb 74f
10:53am 3.5ft 21 28 mph 1006.1mb 72f
9:53am 3.5ft 21 28 mph 1006.1mb 71f
8:53am 3.5ft 18 26 mph 1004.1mb 73f
7:53am 3.5ft 15 21 mph 1004.1mb 76f
6:53am 2.5ft 18 26 mph 1003.1mb 77f
5:53am 2.5ft 8 11 mph 1004.1mb 77f
4:53am 3ft 9 15 mph 1004.1mb 77f
3:53am 2.5ft 6 9 mph 1005.1mb 77f
2:53am 3ft 8 13 mph 1006.1mb 77f
1:53am 3ft 11 15 mph 1007.1mb 77f
12:53am 3ft 9 11 mph 1007.1mb 76f
Tue 05/23 11:48pm 2.5ft 10 13 mph 1007.1mb 77f
10:48pm 2.5ft 6 8 mph 1008.1mb 77f
9:48pm 3ft 10 15 mph 1006.1mb 79f
8:48pm 3.5ft 8 11 mph 1005.1mb 76f
7:33pm 3.5ft 11 15 mph 1005.1mb 77f
6:33pm 3.5ft 11 20 mph 1005.1mb 78f
5:33pm 3.5ft 10 16 mph 1006.1mb 78f
4:33pm 3.5ft 13 18 mph 1006.1mb 78f
3:33pm 3.5ft 10 17 mph 1006.1mb 78f
2:33pm 3.5ft 15 22 mph 1007.1mb 78f
1:33pm 3.5ft 22 28 mph 1008.1mb 76f
12:33pm 4ft 20 23 mph 1009.1mb 75f
11:33am 4.5ft 11 16 mph 1009.1mb 74f
10:33am 5ft 16 22 mph 1010.1mb 73f
9:33am  -  18 28 mph 1009.1mb 73f
8:33am 5.5ft 38 41 mph 1009.1mb 75f
7:33am 5ft 29 39 mph 1008.1mb 77f
6:33am 5.5ft 32 40 mph 1008.1mb 78f
5:33am 6ft 37 45 mph 1007.1mb 77f
4:33am 4ft 26 33 mph 1008.1mb 77f
3:33am 4.5ft 31 34 mph 1008.1mb 77f
2:28am 3.5ft 31 36 mph 1009.1mb 78f
1:28am 3ft 20 25 mph 1009.1mb 78f
12:28am 2.5ft 28 32 mph 1010.1mb 77f
Mon 05/22 11:23pm 2.5ft 15 24 mph 1012.1mb 76f
10:23pm 2.5ft 16 18 mph 1012.1mb 77f
9:23pm 2.5ft 16 18 mph 1012.1mb 76f
8:23pm 2.5ft 14 16 mph 1012.1mb 77f
7:23pm 2.5ft 17 18 mph 1011.1mb 77f
6:23pm 2ft 14 15 mph 1012.1mb 77f
5:23pm 2ft 11 13 mph 1012.1mb 77f
4:08pm 2ft 8 9 mph 1013.1mb 77f
3:08pm 2ft 8 10 mph 1013.1mb 77f
2:08pm 2.5ft 6 7 mph 1015.1mb 77f
1:08pm 2.5ft 8 9 mph 1015.1mb 77f
12:03pm 2.5ft 10 13 mph 1016.1mb 76f
11:03am 2.5ft 11 14 mph 1016.1mb 76f
10:03am 2.5ft 15 16 mph 1016.1mb 76f
9:03am 3ft 14 17 mph 1016.1mb 76f
8:02am 2.5ft 14 16 mph 1016.1mb 75f
7:02am 2.5ft 17 21 mph 1016.1mb 75f
6:02am 2ft 7 10 mph 1017.1mb 78f
5:02am 2ft 6 6 mph 1016.1mb 78f
4:02am 2ft 1 5 mph 1015.1mb 78f
3:02am 2ft 13 16 mph 1014.1mb 78f
2:02am 2ft 15 16 mph 1015.1mb 75f
1:02am 2.5ft 6 10 mph 1018.1mb 74f
12:02am 3ft 13 14 mph 1018.1mb 72f
Sun 05/21 11:02pm 4.5ft 10 15 mph 1020.1mb 71f
10:02pm 3.5ft 10 14 mph 1020.1mb 73f
9:02pm 3.5ft 16 20 mph 1019.1mb 73f
7:57pm 4.5ft 13 18 mph 1017.1mb 73f
6:57pm 4.5ft 14 23 mph 1016.1mb 76f
5:57pm 5ft 29 32 mph 1015.1mb 74f
4:57pm 5ft 23 25 mph 1017.1mb 72f
3:57pm 4ft 20 29 mph 1017.1mb 74f
2:57pm 4.5ft 23 26 mph 1016.1mb 73f
1:57pm 4ft 21 26 mph 1017.1mb 76f
12:57pm 2.5ft 25 28 mph 1016.1mb 77f
11:57am 2.5ft 13 15 mph 1017.1mb 79f
10:57am 2.5ft 10 11 mph 1016.1mb 79f
9:57am 2.5ft 7 8 mph 1016.1mb 79f
8:57am 2.5ft 5 6 mph 1016.1mb 79f
7:57am 2.5ft 5 6 mph 1016.1mb 79f
6:57am 2.5ft 8 9 mph 1016.1mb 78f
5:52am 2.5ft 6 9 mph 1015.1mb 78f
4:52am 2.5ft 7 10 mph 1015.1mb 78f
3:52am 2.5ft 11 15 mph 1015.1mb 78f